Time;durP1;ratioP1;P1;durP2;ratioP2;P2;SDS_P1;SDS_P2;PMS_P1;PMS_P2;Temp;Humidity;BMP_temperature;BMP_pressure;BME280_temperature;BME280_humidity;BME280_pressure;Samples;Min_cycle;Max_cycle;Signal;HPM_P1;HPM_P2
2023/10/12 00:01:58;;;;;;;1.63;1.53;;;;;16.80;96121.00;;;;5052823;28;20219;-57
2023/10/12 00:04:27;;;;;;;0.80;0.80;;;;;17.00;96125.00;;;;5052886;28;20208;-58
2023/10/12 00:06:55;;;;;;;0.83;0.83;;;;;16.90;96115.00;;;;5053088;28;20225;-59
2023/10/12 00:09:25;;;;;;;2.40;1.53;;;;;17.00;96116.00;;;;5034824;28;20665;-57
2023/10/12 00:11:58;;;;;;;0.93;0.90;;;;;16.90;96118.00;;;;5052668;28;20216;-56
2023/10/12 00:14:29;;;;;;;1.67;1.40;;;;;17.00;96109.00;;;;5053138;28;20262;-57
2023/10/12 00:16:57;;;;;;;1.67;1.57;;;;;17.00;96107.00;;;;5053198;28;20219;-57
2023/10/12 00:19:25;;;;;;;1.10;1.10;;;;;17.00;96112.00;;;;5053196;28;20197;-57
2023/10/12 00:21:59;;;;;;;1.63;1.30;;;;;17.10;96101.00;;;;5054855;28;20216;-57
2023/10/12 00:24:26;;;;;;;0.83;0.83;;;;;17.00;96099.00;;;;5056490;28;20189;-58
2023/10/12 00:26:57;;;;;;;0.90;0.90;;;;;17.00;96108.00;;;;5056466;28;20196;-56
2023/10/12 00:29:24;;;;;;;1.50;1.40;;;;;17.00;96106.00;;;;5056582;28;20200;-56
2023/10/12 00:31:54;;;;;;;1.30;1.27;;;;;17.10;96096.00;;;;5056466;28;20216;-56
2023/10/12 00:34:23;;;;;;;1.10;1.10;;;;;17.20;96096.00;;;;5056262;28;20216;-56
2023/10/12 00:36:53;;;;;;;1.00;1.00;;;;;17.20;96094.00;;;;5056083;28;20284;-58
2023/10/12 00:39:27;;;;;;;1.47;1.37;;;;;17.10;96097.00;;;;5055992;28;20531;-58
2023/10/12 00:41:56;;;;;;;0.80;0.80;;;;;17.50;96092.00;;;;5056277;28;20223;-56
2023/10/12 00:44:28;;;;;;;1.87;1.77;;;;;17.40;96094.00;;;;5055957;28;20192;-57
2023/10/12 00:47:12;;;;;;;4.83;1.30;;;;;17.50;96096.00;;;;5056063;28;20259;-56
2023/10/12 00:49:41;;;;;;;1.20;1.20;;;;;17.50;96097.00;;;;5056471;28;20207;-56
2023/10/12 00:52:13;;;;;;;0.80;0.80;;;;;17.40;96094.00;;;;5055824;28;20220;-56
2023/10/12 00:54:43;;;;;;;1.93;1.83;;;;;17.50;96090.00;;;;5055762;28;20655;-56
2023/10/12 00:57:12;;;;;;;2.23;1.93;;;;;17.40;96084.00;;;;5055712;28;20551;-56
2023/10/12 00:59:43;;;;;;;1.97;1.47;;;;;17.30;96084.00;;;;5055688;28;20203;-56
2023/10/12 01:02:13;;;;;;;1.50;1.40;;;;;17.40;96086.00;;;;5055888;28;20258;-56
2023/10/12 01:04:42;;;;;;;0.90;0.90;;;;;17.30;96083.00;;;;5055715;28;20192;-56
2023/10/12 01:07:11;;;;;;;2.27;1.37;;;;;17.40;96088.00;;;;5055934;28;20242;-56
2023/10/12 01:09:42;;;;;;;1.60;1.50;;;;;17.50;96086.00;;;;5056037;28;20198;-56
2023/10/12 01:12:14;;;;;;;1.33;1.23;;;;;17.60;96088.00;;;;5055749;28;20687;-56
2023/10/12 01:14:44;;;;;;;2.63;1.90;;;;;17.60;96088.00;;;;5055517;28;20201;-56
2023/10/12 01:17:16;;;;;;;1.23;1.03;;;;;17.60;96091.00;;;;5055392;28;20234;-56
2023/10/12 01:19:47;;;;;;;9.50;2.13;;;;;17.50;96079.00;;;;5055387;28;20212;-56
2023/10/12 01:22:25;;;;;;;0.80;0.80;;;;;17.50;96083.00;;;;5055316;28;20244;-55
2023/10/12 01:25:00;;;;;;;2.37;1.20;;;;;17.60;96082.00;;;;5055528;28;20177;-56
2023/10/12 01:27:28;;;;;;;0.63;0.63;;;;;17.70;96080.00;;;;5055665;28;20272;-56
2023/10/12 01:29:59;;;;;;;1.77;1.67;;;;;17.80;96078.00;;;;5055149;28;20247;-56
2023/10/12 01:32:31;;;;;;;0.97;0.93;;;;;17.70;96080.00;;;;5055203;28;20302;-56
2023/10/12 01:35:02;;;;;;;2.20;1.93;;;;;17.70;96068.00;;;;5055290;28;20230;-57
2023/10/12 01:37:41;;;;;;;1.73;1.63;;;;;17.70;96075.00;;;;5055310;28;20188;-57
2023/10/12 01:40:15;;;;;;;0.63;0.63;;;;;17.70;96068.00;;;;5055664;28;20187;-57
2023/10/12 01:42:49;;;;;;;1.63;1.53;;;;;17.80;96073.00;;;;5037277;28;20223;-57
2023/10/12 01:45:24;;;;;;;0.87;0.87;;;;;17.90;96068.00;;;;5055382;28;20251;-60
2023/10/12 01:47:57;;;;;;;2.03;1.27;;;;;17.80;96074.00;;;;5055024;28;20187;-57
2023/10/12 01:50:25;;;;;;;1.10;1.10;;;;;17.90;96074.00;;;;5054735;28;20196;-57
2023/10/12 01:52:58;;;;;;;2.00;1.60;;;;;17.90;96063.00;;;;5055054;28;20266;-57
2023/10/12 01:55:29;;;;;;;1.13;1.10;;;;;17.90;96066.00;;;;5054706;28;20238;-57
2023/10/12 01:57:57;;;;;;;2.80;1.20;;;;;17.90;96076.00;;;;5054881;28;20654;-57
2023/10/12 02:00:27;;;;;;;1.33;1.23;;;;;17.90;96066.00;;;;5054723;28;20563;-57
2023/10/12 02:03:03;;;;;;;1.03;1.03;;;;;17.80;96060.00;;;;5054642;28;20215;-55
2023/10/12 02:05:34;;;;;;;2.03;1.60;;;;;17.80;96063.00;;;;5054957;28;20188;-55
2023/10/12 02:08:05;;;;;;;1.53;1.43;;;;;17.80;96056.00;;;;5054490;28;20230;-55
2023/10/12 02:10:42;;;;;;;1.13;1.13;;;;;17.80;96065.00;;;;5054505;28;20543;-58
2023/10/12 02:13:10;;;;;;;1.00;0.90;;;;;17.80;96058.00;;;;5054418;28;20608;-55
2023/10/12 02:15:38;;;;;;;1.70;1.30;;;;;17.60;96069.00;;;;5054264;28;20218;-55
2023/10/12 02:18:14;;;;;;;0.97;0.97;;;;;17.70;96064.00;;;;5054244;28;20196;-55
2023/10/12 02:20:58;;;;;;;1.60;1.50;;;;;17.60;96076.00;;;;5054788;28;20190;-58
2023/10/12 02:23:32;;;;;;;0.80;0.80;;;;;17.70;96069.00;;;;5054696;28;20632;-55
2023/10/12 02:26:07;;;;;;;0.93;0.83;;;;;17.60;96075.00;;;;5054011;28;20267;-56
2023/10/12 02:28:37;;;;;;;0.97;0.93;;;;;17.50;96072.00;;;;5054066;28;20606;-56
2023/10/12 02:31:05;;;;;;;1.73;1.63;;;;;17.30;96070.00;;;;5053839;28;20291;-58
2023/10/12 02:33:37;;;;;;;0.83;0.83;;;;;17.20;96055.00;;;;5054075;28;20216;-56
2023/10/12 02:36:06;;;;;;;0.90;0.90;;;;;17.30;96062.00;;;;5054405;28;20191;-56
2023/10/12 02:38:36;;;;;;;1.90;1.40;;;;;17.20;96070.00;;;;5053840;28;20595;-58
2023/10/12 02:41:03;;;;;;;1.00;1.00;;;;;17.00;96063.00;;;;5054143;28;20671;-56
2023/10/12 02:43:32;;;;;;;1.10;1.10;;;;;17.00;96065.00;;;;5053258;28;20617;-56
2023/10/12 02:46:06;;;;;;;1.67;1.33;;;;;16.70;96061.00;;;;5053639;28;20596;-56
2023/10/12 02:48:36;;;;;;;1.20;1.20;;;;;16.60;96064.00;;;;5035707;28;20184;-56
2023/10/12 02:51:06;;;;;;;1.00;1.00;;;;;16.60;96061.00;;;;5053535;28;20181;-56
2023/10/12 02:53:39;;;;;;;1.00;1.00;;;;;16.60;96068.00;;;;5053440;28;20754;-56
2023/10/12 02:56:07;;;;;;;1.47;1.37;;;;;16.60;96061.00;;;;5053778;28;20180;-57
2023/10/12 02:58:34;;;;;;;0.70;0.70;;;;;16.60;96063.00;;;;5053396;28;20544;-56
2023/10/12 03:01:12;;;;;;;3.50;2.63;;;;;16.50;96064.00;;;;5053433;28;20203;-56
2023/10/12 03:03:47;;;;;;;1.20;1.20;;;;;16.60;96059.00;;;;5053426;28;20662;-56
2023/10/12 03:06:21;;;;;;;1.93;1.83;;;;;16.60;96066.00;;;;5053458;28;20184;-56
2023/10/12 03:09:14;;;;;;;1.77;1.37;;;;;16.60;96061.00;;;;5053653;28;20188;-56
2023/10/12 03:11:42;;;;;;;1.43;1.33;;;;;16.80;96055.00;;;;5053352;28;20220;-56
2023/10/12 03:14:15;;;;;;;0.90;0.90;;;;;17.00;96059.00;;;;5053401;28;20248;-56
2023/10/12 03:16:44;;;;;;;1.03;1.03;;;;;16.80;96053.00;;;;5053604;28;20239;-56
2023/10/12 03:19:23;;;;;;;1.73;1.63;;;;;16.80;96057.00;;;;5053244;28;20507;-56
2023/10/12 03:21:52;;;;;;;1.23;1.23;;;;;16.70;96050.00;;;;5053128;28;20216;-57
2023/10/12 03:24:25;;;;;;;1.90;1.77;;;;;16.80;96047.00;;;;5053141;28;20722;-56
2023/10/12 03:27:10;;;;;;;3.83;1.97;;;;;16.70;96049.00;;;;5053326;28;20184;-56
2023/10/12 03:29:43;;;;;;;1.07;1.07;;;;;16.70;96063.00;;;;5053106;28;20200;-56
2023/10/12 03:32:11;;;;;;;3.03;0.93;;;;;16.70;96062.00;;;;5052880;28;20251;-57
2023/10/12 03:34:53;;;;;;;1.47;1.03;;;;;16.70;96065.00;;;;5052859;28;20227;-56
2023/10/12 03:37:40;;;;;;;2.37;1.10;;;;;16.80;96070.00;;;;5052994;28;20176;-56
2023/10/12 03:43:26;;;;;;;0.60;0.60;;;;;16.70;96060.00;;;;5051984;28;20216;-56
2023/10/12 03:46:15;;;;;;;1.00;1.00;;;;;16.60;96069.00;;;;5053507;28;20175;-56
2023/10/12 03:48:51;;;;;;;1.33;1.23;;;;;16.70;96059.00;;;;5052973;28;20188;-56
2023/10/12 03:51:37;;;;;;;1.53;1.43;;;;;16.80;96067.00;;;;5053004;28;20212;-56
2023/10/12 03:54:11;;;;;;;4.07;2.37;;;;;16.80;96058.00;;;;5053000;28;20200;-56
2023/10/12 03:56:40;;;;;;;1.10;1.10;;;;;16.80;96055.00;;;;5056275;28;20176;-56
2023/10/12 03:59:08;;;;;;;0.90;0.90;;;;;16.90;96050.00;;;;5056885;28;20226;-57
2023/10/12 04:01:40;;;;;;;1.33;1.33;;;;;16.80;96040.00;;;;5056698;28;20212;-56
2023/10/12 04:04:20;;;;;;;3.20;2.00;;;;;16.80;96037.00;;;;5057102;28;20219;-56
2023/10/12 04:07:05;;;;;;;1.70;1.60;;;;;16.90;96029.00;;;;5056794;28;20625;-57
2023/10/12 04:09:42;;;;;;;0.80;0.80;;;;;16.80;96042.00;;;;5057053;28;20185;-57
2023/10/12 04:12:19;;;;;;;1.10;1.10;;;;;16.80;96039.00;;;;5057179;28;20230;-57
2023/10/12 04:14:50;;;;;;;0.80;0.80;;;;;16.80;96053.00;;;;5056653;28;20667;-57
2023/10/12 04:20:14;;;;;;;1.27;1.17;;;;;16.90;96066.00;;;;5056738;28;20184;-57
2023/10/12 04:23:04;;;;;;;1.20;1.10;;;;;16.80;96050.00;;;;5056483;28;20269;-57
2023/10/12 04:25:46;;;;;;;4.63;1.53;;;;;16.90;96056.00;;;;5056133;28;20196;-57
2023/10/12 04:28:22;;;;;;;0.83;0.83;;;;;16.80;96057.00;;;;5056300;28;20181;-58
2023/10/12 04:31:21;;;;;;;1.53;1.43;;;;;16.60;96059.00;;;;5056089;28;20679;-57
2023/10/12 04:34:05;;;;;;;6.13;1.97;;;;;16.70;96066.00;;;;5056184;28;20697;-57
2023/10/12 04:36:43;;;;;;;0.90;0.90;;;;;16.60;96062.00;;;;5056145;28;20180;-58
2023/10/12 04:39:17;;;;;;;2.70;1.73;;;;;16.70;96054.00;;;;5056389;28;20568;-57
2023/10/12 04:42:01;;;;;;;1.93;1.83;;;;;16.90;96059.00;;;;5056224;28;20219;-57
2023/10/12 04:44:44;;;;;;;12.40;1.30;;;;;17.00;96057.00;;;;5056403;28;20172;-57
2023/10/12 04:47:15;;;;;;;1.80;1.70;;;;;17.00;96053.00;;;;5056590;28;20184;-57
2023/10/12 04:49:54;;;;;;;1.43;1.37;;;;;17.00;96060.00;;;;5056027;28;20180;-58
2023/10/12 04:52:36;;;;;;;1.83;1.60;;;;;17.00;96057.00;;;;5056183;28;20686;-58
2023/10/12 04:58:10;;;;;;;0.90;0.90;;;;;17.10;96051.00;;;;5030965;28;20244;-58
2023/10/12 05:00:55;;;;;;;0.80;0.80;;;;;17.10;96049.00;;;;5055763;28;20180;-56
2023/10/12 05:03:26;;;;;;;1.00;0.90;;;;;17.10;96047.00;;;;5055693;28;20187;-56
2023/10/12 05:06:04;;;;;;;3.60;1.90;;;;;17.30;96051.00;;;;5056152;28;20179;-56
2023/10/12 05:08:33;;;;;;;1.33;1.33;;;;;17.40;96045.00;;;;5055238;28;20214;-56
2023/10/12 05:11:01;;;;;;;0.80;0.80;;;;;17.40;96047.00;;;;5055676;28;20220;-56
2023/10/12 05:13:28;;;;;;;1.27;1.27;;;;;17.60;96047.00;;;;5055399;28;20561;-56
2023/10/12 05:15:56;;;;;;;0.73;0.73;;;;;17.60;96049.00;;;;5055272;28;20208;-56
2023/10/12 05:18:24;;;;;;;1.50;1.40;;;;;17.50;96045.00;;;;5055860;28;20226;-56
2023/10/12 05:20:52;;;;;;;5.80;1.70;;;;;17.50;96051.00;;;;5055163;28;20192;-56
2023/10/12 05:23:20;;;;;;;0.90;0.90;;;;;17.50;96050.00;;;;5055245;28;20675;-56
2023/10/12 05:26:07;;;;;;;0.60;0.60;;;;;17.50;96064.00;;;;5055233;28;20195;-57
2023/10/12 05:28:43;;;;;;;1.50;1.43;;;;;17.50;96056.00;;;;5055541;28;20181;-56
2023/10/12 05:31:13;;;;;;;1.00;1.00;;;;;17.50;96059.00;;;;5055463;28;20612;-57
2023/10/12 05:33:43;;;;;;;1.70;1.53;;;;;17.50;96059.00;;;;5055739;28;20357;-57
2023/10/12 05:36:11;;;;;;;0.80;0.80;;;;;17.60;96071.00;;;;5055365;28;20216;-57
2023/10/12 05:38:40;;;;;;;1.53;1.47;;;;;17.50;96064.00;;;;5054951;28;20612;-56
2023/10/12 05:41:09;;;;;;;1.60;1.50;;;;;17.40;96067.00;;;;5054854;28;20281;-57
2023/10/12 05:43:40;;;;;;;1.33;1.33;;;;;17.50;96073.00;;;;5054845;28;20196;-57
2023/10/12 05:46:13;;;;;;;0.90;0.90;;;;;17.30;96078.00;;;;5054895;28;20192;-57
2023/10/12 05:48:45;;;;;;;1.33;1.30;;;;;17.40;96072.00;;;;5054708;28;20624;-57
2023/10/12 05:51:14;;;;;;;1.40;1.30;;;;;17.30;96067.00;;;;5054911;28;20208;-57
2023/10/12 05:53:41;;;;;;;0.77;0.77;;;;;17.30;96067.00;;;;5054672;28;20202;-57
2023/10/12 05:56:09;;;;;;;0.90;0.90;;;;;17.40;96061.00;;;;5054539;28;20226;-56
2023/10/12 05:58:38;;;;;;;0.97;0.97;;;;;17.50;96064.00;;;;5054506;28;20197;-57
2023/10/12 06:01:09;;;;;;;0.70;0.70;;;;;17.50;96070.00;;;;5054688;28;20239;-57
2023/10/12 06:03:46;;;;;;;1.63;1.27;;;;;17.50;96076.00;;;;5054385;28;20263;-57
2023/10/12 06:06:14;;;;;;;1.93;1.23;;;;;17.50;96075.00;;;;5054964;28;20172;-57
2023/10/12 06:08:41;;;;;;;1.77;1.67;;;;;17.60;96064.00;;;;5054378;28;20200;-57
2023/10/12 06:11:11;;;;;;;1.03;1.03;;;;;17.70;96068.00;;;;5054335;28;20220;-57
2023/10/12 06:13:41;;;;;;;0.90;0.90;;;;;17.90;96072.00;;;;5054191;28;20195;-57
2023/10/12 06:16:14;;;;;;;1.50;1.43;;;;;17.90;96072.00;;;;5054788;28;20231;-57
2023/10/12 06:18:45;;;;;;;1.53;1.43;;;;;18.00;96067.00;;;;5054740;28;20185;-57
2023/10/12 06:21:17;;;;;;;1.73;1.40;;;;;18.00;96062.00;;;;5054151;28;20216;-57
2023/10/12 06:23:48;;;;;;;1.10;1.07;;;;;18.10;96070.00;;;;5054439;28;20168;-58
2023/10/12 06:26:29;;;;;;;1.80;1.70;;;;;18.00;96063.00;;;;5036198;28;20279;-57
2023/10/12 06:29:00;;;;;;;1.20;1.20;;;;;18.10;96059.00;;;;5054271;28;20906;-58
2023/10/12 06:31:29;;;;;;;3.20;1.67;;;;;18.10;96054.00;;;;5036138;28;20219;-58
2023/10/12 06:34:00;;;;;;;3.73;1.73;;;;;18.20;96056.00;;;;5054009;28;20206;-57
2023/10/12 06:36:38;;;;;;;2.03;1.63;;;;;18.20;96056.00;;;;5054306;28;20180;-57
2023/10/12 06:42:09;;;;;;;0.80;0.80;;;;;18.30;96057.00;;;;5053807;28;20223;-57
2023/10/12 06:44:35;;;;;;;1.53;1.27;;;;;18.30;96064.00;;;;5053870;28;20593;-57
2023/10/12 06:47:28;;;;;;;0.97;0.97;;;;;18.30;96072.00;;;;5053688;28;20249;-57
2023/10/12 06:50:00;;;;;;;4.73;1.60;;;;;18.40;96075.00;;;;5053424;28;20285;-57
2023/10/12 06:52:29;;;;;;;0.97;0.90;;;;;18.50;96074.00;;;;5054378;28;20524;-57
2023/10/12 06:54:59;;;;;;;1.00;1.00;;;;;18.50;96083.00;;;;5053396;28;20216;-57
2023/10/12 06:57:36;;;;;;;1.43;1.33;;;;;18.50;96088.00;;;;5053759;28;20196;-58
2023/10/12 07:00:34;;;;;;;3.50;2.00;;;;;18.50;96090.00;;;;5053571;28;20184;-57
2023/10/12 07:03:01;;;;;;;1.17;1.17;;;;;18.50;96066.00;;;;5053573;28;20614;-57
2023/10/12 07:05:33;;;;;;;0.70;0.70;;;;;18.60;96099.00;;;;5053455;28;20196;-57
2023/10/12 07:08:07;;;;;;;1.67;1.57;;;;;18.40;96103.00;;;;5053828;28;20172;-57
2023/10/12 07:10:34;;;;;;;0.87;0.87;;;;;18.40;96107.00;;;;5053525;28;20281;-57
2023/10/12 07:13:03;;;;;;;2.97;1.90;;;;;18.40;96124.00;;;;5053580;28;20222;-57
2023/10/12 07:15:40;;;;;;;2.43;1.13;;;;;18.50;96122.00;;;;5053506;28;20215;-57
2023/10/12 07:18:13;;;;;;;5.77;1.03;;;;;18.50;96129.00;;;;5053916;28;20215;-58
2023/10/12 07:20:43;;;;;;;1.47;1.37;;;;;18.40;96127.00;;;;5053398;28;20543;-57
2023/10/12 07:23:19;;;;;;;2.17;1.63;;;;;18.30;96116.00;;;;5053449;28;20646;-58
2023/10/12 07:25:50;;;;;;;2.33;2.07;;;;;18.40;96129.00;;;;5035321;28;20191;-57
2023/10/12 07:28:19;;;;;;;0.93;0.93;;;;;18.30;96126.00;;;;5049496;28;20231;-57
2023/10/12 07:33:30;;;;;;;1.50;1.40;;;;;18.50;96131.00;;;;5049018;28;20793;-61
2023/10/12 07:36:08;;;;;;;3.77;2.13;;;;;18.30;96118.00;;;;5051071;28;20270;-61
2023/10/12 07:38:36;;;;;;;1.53;1.43;;;;;18.30;96107.00;;;;5051797;28;20183;-61
2023/10/12 07:41:04;;;;;;;0.77;0.77;;;;;18.20;96117.00;;;;5050990;28;20208;-61
2023/10/12 07:43:32;;;;;;;0.70;0.70;;;;;18.30;96130.00;;;;5051819;28;20586;-61
2023/10/12 07:46:12;;;;;;;1.20;1.17;;;;;18.40;96124.00;;;;5051098;28;20276;-61
2023/10/12 07:48:42;;;;;;;1.10;1.10;;;;;18.30;96125.00;;;;5034028;28;20286;-56
2023/10/12 07:51:24;;;;;;;1.40;1.30;;;;;18.40;96126.00;;;;5048526;28;20303;-56
2023/10/12 07:53:59;;;;;;;1.60;1.50;;;;;18.40;96128.00;;;;5051436;28;20620;-57
2023/10/12 07:56:32;;;;;;;1.10;1.10;;;;;18.70;96128.00;;;;5050642;28;20199;-58
2023/10/12 07:58:59;;;;;;;1.90;1.73;;;;;18.80;96130.00;;;;5046849;28;20218;-56
2023/10/12 08:01:39;;;;;;;1.90;1.50;;;;;18.70;96130.00;;;;5051173;28;20239;-57
2023/10/12 08:04:28;;;;;;;2.33;1.47;;;;;18.80;96130.00;;;;5051481;28;20184;-57
2023/10/12 08:06:59;;;;;;;0.80;0.80;;;;;18.80;96123.00;;;;5051373;28;20196;-57
2023/10/12 08:09:47;;;;;;;1.60;1.47;;;;;18.70;96132.00;;;;5050459;28;20644;-57
2023/10/12 08:12:26;;;;;;;2.63;1.13;;;;;18.60;96127.00;;;;5050485;28;20212;-58
2023/10/12 08:15:07;;;;;;;2.17;1.97;;;;;18.70;96120.00;;;;5051340;28;20258;-56
2023/10/12 08:17:34;;;;;;;1.83;1.73;;;;;18.80;96127.00;;;;5050643;28;20184;-56
2023/10/12 08:22:54;;;;;;;1.20;1.20;;;;;18.70;96131.00;;;;5050650;28;20219;-56
2023/10/12 08:25:27;;;;;;;2.17;1.83;;;;;18.80;96128.00;;;;5051376;28;20263;-57
2023/10/12 08:28:05;;;;;;;1.27;1.13;;;;;19.00;96136.00;;;;5050359;28;20663;-57
2023/10/12 08:33:48;;;;;;;1.60;1.50;;;;;18.80;96143.00;;;;5050965;28;20262;-57
2023/10/12 08:38:54;;;;;;;0.97;0.97;;;;;18.90;96138.00;;;;5051304;28;20195;-56
2023/10/12 08:41:21;;;;;;;2.87;1.50;;;;;19.00;96130.00;;;;5050701;28;20239;-56
2023/10/12 08:43:52;;;;;;;1.07;1.07;;;;;19.00;96133.00;;;;5053992;28;20192;-57
2023/10/12 08:46:51;;;;;;;0.80;0.80;;;;;18.90;96132.00;;;;5054100;28;20180;-57
2023/10/12 08:49:52;;;;;;;1.30;1.17;;;;;19.00;96133.00;;;;5036702;28;20208;-57
2023/10/12 08:52:27;;;;;;;1.93;1.83;;;;;18.90;96138.00;;;;5053646;28;20215;-57
2023/10/12 08:55:03;;;;;;;1.53;1.43;;;;;19.10;96136.00;;;;5054099;28;20237;-57
2023/10/12 08:57:43;;;;;;;1.73;1.63;;;;;19.20;96138.00;;;;5053831;28;20188;-57
2023/10/12 09:00:24;;;;;;;2.87;2.57;;;;;19.20;96137.00;;;;5054265;28;20647;-57
2023/10/12 09:02:58;;;;;;;1.87;1.77;;;;;19.20;96140.00;;;;5053553;28;20302;-57
2023/10/12 09:05:28;;;;;;;0.80;0.80;;;;;19.30;96139.00;;;;5053568;28;20552;-57
2023/10/12 09:08:08;;;;;;;1.60;1.50;;;;;19.30;96138.00;;;;5053079;28;20196;-57
2023/10/12 09:10:55;;;;;;;1.03;1.03;;;;;19.30;96140.00;;;;5052420;28;20648;-57
2023/10/12 09:13:24;;;;;;;0.77;0.77;;;;;19.40;96149.00;;;;5050603;28;20188;-57
2023/10/12 09:15:54;;;;;;;6.77;1.83;;;;;19.50;96150.00;;;;5036124;28;20212;-57
2023/10/12 09:18:24;;;;;;;1.97;1.87;;;;;19.70;96143.00;;;;5053367;28;20198;-55
2023/10/12 09:21:15;;;;;;;0.93;0.93;;;;;19.90;96144.00;;;;5054002;28;20656;-55
2023/10/12 09:23:47;;;;;;;1.40;1.30;;;;;20.20;96152.00;;;;5053471;28;20188;-55
2023/10/12 09:26:15;;;;;;;1.80;1.53;;;;;20.30;96154.00;;;;5053554;28;20195;-56
2023/10/12 09:28:58;;;;;;;2.57;1.17;;;;;20.50;96158.00;;;;5053021;28;20200;-56
2023/10/12 09:36:54;;;;;;;1.80;1.53;;;;;20.80;96144.00;;;;5048872;28;20663;-56
2023/10/12 09:39:25;;;;;;;0.80;0.80;;;;;20.70;96153.00;;;;5053284;28;20219;-57
2023/10/12 09:41:55;;;;;;;2.13;1.87;;;;;20.80;96151.00;;;;5053088;28;20227;-56
2023/10/12 09:44:27;;;;;;;1.37;1.27;;;;;20.80;96147.00;;;;5053307;28;20554;-56
2023/10/12 09:46:56;;;;;;;1.50;1.40;;;;;21.00;96150.00;;;;5053494;28;20188;-56
2023/10/12 09:49:27;;;;;;;1.63;1.52;;;;;21.10;96152.00;;;;5052273;28;20196;-57
2023/10/12 09:51:59;;;;;;;1.10;1.10;;;;;21.10;96161.00;;;;5053015;28;20326;-56
2023/10/12 09:54:45;;;;;;;0.97;0.97;;;;;20.90;96159.00;;;;5049454;28;20196;-56
2023/10/12 09:57:23;;;;;;;1.10;1.10;;;;;20.90;96153.00;;;;5053179;28;20215;-56
2023/10/12 09:59:53;;;;;;;1.37;1.30;;;;;21.00;96165.00;;;;5053168;28;20192;-56
2023/10/12 10:02:33;;;;;;;0.90;0.90;;;;;21.00;96159.00;;;;5052305;28;20223;-56
2023/10/12 10:05:11;;;;;;;2.13;1.27;;;;;21.10;96152.00;;;;5034923;28;20208;-57
2023/10/12 10:07:52;;;;;;;1.77;1.67;;;;;21.00;96157.00;;;;5052212;28;20206;-55
2023/10/12 10:10:30;;;;;;;0.77;0.77;;;;;20.90;96167.00;;;;5049225;28;20196;-56
2023/10/12 10:13:00;;;;;;;0.80;0.80;;;;;21.20;96159.00;;;;5052426;28;20662;-57
2023/10/12 10:15:36;;;;;;;1.37;1.27;;;;;21.30;96163.00;;;;5052080;28;20212;-56
2023/10/12 10:18:05;;;;;;;1.65;1.55;;;;;21.40;96160.00;;;;5052986;28;20194;-56
2023/10/12 10:20:50;;;;;;;2.22;1.70;;;;;21.50;96163.00;;;;5052299;28;20192;-56
2023/10/12 10:23:19;;;;;;;1.50;1.40;;;;;21.60;96159.00;;;;5052699;28;20192;-56
2023/10/12 10:25:56;;;;;;;1.67;1.58;;;;;21.70;96160.00;;;;5052868;28;20202;-56
2023/10/12 10:28:29;;;;;;;1.88;1.77;;;;;21.70;96168.00;;;;5052650;28;20604;-56
2023/10/12 10:31:00;;;;;;;1.55;1.52;;;;;21.90;96171.00;;;;5051013;28;20667;-56
2023/10/12 10:33:29;;;;;;;1.52;1.42;;;;;21.80;96175.00;;;;5052175;28;20267;-57
2023/10/12 10:36:05;;;;;;;1.35;1.25;;;;;21.70;96166.00;;;;5052293;28;20220;-56
2023/10/12 10:38:33;;;;;;;0.77;0.77;;;;;21.80;96180.00;;;;5034943;28;20231;-56
2023/10/12 10:41:17;;;;;;;1.03;1.03;;;;;21.80;96177.00;;;;5051028;28;20198;-57
2023/10/12 10:43:46;;;;;;;1.70;1.60;;;;;21.80;96183.00;;;;5052441;28;20638;-57
2023/10/12 10:46:16;;;;;;;1.15;1.15;;;;;21.70;96171.00;;;;5051444;28;20219;-56
2023/10/12 10:48:49;;;;;;;15.40;2.38;;;;;21.80;96185.00;;;;5052336;28;20276;-56
2023/10/12 10:51:19;;;;;;;0.65;0.65;;;;;21.80;96191.00;;;;5051783;28;20298;-57
2023/10/12 10:53:52;;;;;;;1.40;1.30;;;;;21.90;96177.00;;;;5052196;28;20200;-56
2023/10/12 10:56:34;;;;;;;1.20;1.20;;;;;21.80;96167.00;;;;5051507;28;20208;-56
2023/10/12 10:59:05;;;;;;;3.60;2.17;;;;;22.00;96164.00;;;;5052476;28;20682;-56
2023/10/12 11:01:32;;;;;;;4.43;2.05;;;;;22.00;96175.00;;;;5051322;28;20215;-56
2023/10/12 11:04:01;;;;;;;1.33;1.13;;;;;22.00;96172.00;;;;5051790;28;20218;-56
2023/10/12 11:06:28;;;;;;;1.10;1.10;;;;;22.10;96175.00;;;;5050736;28;20271;-56
2023/10/12 11:09:05;;;;;;;1.38;0.90;;;;;22.10;96177.00;;;;5052111;28;20208;-56
2023/10/12 11:11:44;;;;;;;1.75;1.50;;;;;22.10;96196.00;;;;5051397;28;20227;-56
2023/10/12 11:14:16;;;;;;;2.85;1.95;;;;;22.00;96182.00;;;;5051712;28;20184;-57
2023/10/12 11:16:46;;;;;;;0.70;0.70;;;;;22.00;96177.00;;;;5050241;28;20208;-57
2023/10/12 11:19:14;;;;;;;1.10;1.10;;;;;22.10;96182.00;;;;5051891;28;20204;-56
2023/10/12 11:21:49;;;;;;;0.93;0.93;;;;;22.30;96170.00;;;;5051884;28;20229;-58
2023/10/12 11:24:17;;;;;;;2.28;2.15;;;;;22.20;96169.00;;;;5051340;28;20196;-56
2023/10/12 11:26:54;;;;;;;3.40;1.33;;;;;22.30;96166.00;;;;5051469;28;20299;-56
2023/10/12 11:29:24;;;;;;;1.25;1.23;;;;;22.40;96163.00;;;;5051320;28;20893;-56
2023/10/12 11:32:11;;;;;;;1.60;1.50;;;;;22.60;96163.00;;;;5050001;28;21072;-56
2023/10/12 11:34:45;;;;;;;0.80;0.80;;;;;23.00;96178.00;;;;5047830;28;20653;-57
2023/10/12 11:37:14;;;;;;;1.63;1.52;;;;;23.00;96174.00;;;;5051399;28;20211;-57
2023/10/12 11:39:42;;;;;;;0.93;0.93;;;;;22.70;96176.00;;;;5051501;28;20222;-56
2023/10/12 11:42:12;;;;;;;0.90;0.90;;;;;22.60;96175.00;;;;5051363;28;20212;-56
2023/10/12 11:44:45;;;;;;;0.77;0.77;;;;;22.60;96169.00;;;;5051168;28;20211;-56
2023/10/12 11:47:30;;;;;;;2.53;1.25;;;;;22.80;96164.00;;;;5033424;28;20302;-56
2023/10/12 11:49:58;;;;;;;0.60;0.60;;;;;22.60;96167.00;;;;5047037;28;20705;-56
2023/10/12 11:52:32;;;;;;;1.65;1.30;;;;;22.70;96158.00;;;;5050726;28;20227;-56
2023/10/12 11:55:06;;;;;;;2.17;1.98;;;;;22.90;96163.00;;;;5051587;28;20196;-56
2023/10/12 11:57:33;;;;;;;0.82;0.82;;;;;22.90;96162.00;;;;5050895;28;20212;-57
2023/10/12 12:00:18;;;;;;;10.23;1.15;;;;;22.90;96166.00;;;;5050101;28;20688;-54
2023/10/12 12:02:45;;;;;;;0.95;0.95;;;;;23.00;96154.00;;;;5051087;28;20253;-54
2023/10/12 12:05:14;;;;;;;4.70;1.88;;;;;23.50;96146.00;;;;5051675;28;20761;-55
2023/10/12 12:07:41;;;;;;;0.93;0.93;;;;;23.40;96144.00;;;;5051271;28;20553;-55
2023/10/12 12:10:13;;;;;;;1.10;1.10;;;;;23.60;96148.00;;;;5050838;28;20188;-55
2023/10/12 12:12:40;;;;;;;1.95;1.70;;;;;23.30;96176.00;;;;5051099;28;20212;-55
2023/10/12 12:15:14;;;;;;;2.20;1.30;;;;;22.80;96164.00;;;;5051900;28;20206;-55
2023/10/12 12:17:42;;;;;;;1.92;1.83;;;;;23.00;96162.00;;;;5049388;28;20212;-56
2023/10/12 12:20:15;;;;;;;0.82;0.82;;;;;23.10;96143.00;;;;5055054;28;20242;-56
2023/10/12 12:22:43;;;;;;;1.40;1.17;;;;;22.80;96167.00;;;;5054558;28;20707;-57
2023/10/12 12:25:18;;;;;;;0.80;0.80;;;;;22.90;96152.00;;;;5054921;28;20199;-56
2023/10/12 12:27:48;;;;;;;1.05;0.90;;;;;23.00;96141.00;;;;5054398;28;20269;-56
2023/10/12 12:30:29;;;;;;;0.75;0.75;;;;;23.30;96138.00;;;;5054565;28;20656;-57
2023/10/12 12:33:00;;;;;;;1.23;1.13;;;;;23.00;96143.00;;;;5053274;28;20692;-56
2023/10/12 12:35:29;;;;;;;0.70;0.70;;;;;23.10;96128.00;;;;5054414;28;20192;-55
2023/10/12 12:38:00;;;;;;;1.48;1.38;;;;;23.10;96130.00;;;;5054307;28;20212;-56
2023/10/12 12:40:30;;;;;;;1.48;1.42;;;;;23.30;96122.00;;;;5054331;28;20192;-56
2023/10/12 12:42:59;;;;;;;1.08;1.08;;;;;23.20;96154.00;;;;5054134;28;20237;-55
2023/10/12 12:45:30;;;;;;;1.40;1.05;;;;;22.80;96136.00;;;;5036464;28;20218;-55
2023/10/12 12:47:58;;;;;;;1.00;1.00;;;;;22.80;96155.00;;;;5055090;28;20699;-55
2023/10/12 12:50:28;;;;;;;2.35;1.80;;;;;22.80;96128.00;;;;5055101;28;20275;-56
2023/10/12 12:52:57;;;;;;;1.60;1.45;;;;;22.70;96127.00;;;;5054412;28;20297;-55
2023/10/12 12:55:27;;;;;;;1.48;1.38;;;;;22.80;96112.00;;;;5036341;28;20286;-56
2023/10/12 12:57:56;;;;;;;1.13;1.10;;;;;22.80;96094.00;;;;5036118;28;20311;-56
2023/10/12 13:00:23;;;;;;;5.85;2.72;;;;;22.70;96081.00;;;;5036152;28;20234;-55
2023/10/12 13:02:53;;;;;;;1.20;1.20;;;;;22.70;96089.00;;;;5054045;28;20220;-55
2023/10/12 13:05:20;;;;;;;1.27;1.17;;;;;22.70;96087.00;;;;5054295;28;20199;-53
2023/10/12 13:07:48;;;;;;;2.70;1.35;;;;;23.10;96095.00;;;;5051113;28;20192;-58
2023/10/12 13:10:15;;;;;;;0.88;0.88;;;;;23.70;96098.00;;;;5054019;28;20249;-56
2023/10/12 13:12:43;;;;;;;1.02;1.02;;;;;24.00;96089.00;;;;5053329;28;20571;-56
2023/10/12 13:15:11;;;;;;;1.60;1.40;;;;;24.30;96093.00;;;;5054242;28;20565;-56
2023/10/12 13:17:39;;;;;;;0.70;0.70;;;;;24.50;96097.00;;;;5053258;28;20262;-56